createdAt,value
2017-11-10T00:00:09.429Z,37.15
2017-11-10T00:02:37.702Z,34.05
2017-11-10T00:05:05.850Z,35.72
2017-11-10T00:07:35.090Z,34.17
2017-11-10T00:10:03.218Z,31.70
2017-11-10T00:12:32.118Z,32.65
2017-11-10T00:15:01.080Z,34.85
2017-11-10T00:17:29.193Z,34.65
2017-11-10T00:19:57.466Z,35.53
2017-11-10T00:22:25.598Z,40.33
2017-11-10T00:24:53.821Z,36.08
2017-11-10T00:27:21.955Z,34.08
2017-11-10T00:29:50.963Z,34.25
2017-11-10T00:32:19.881Z,30.75
2017-11-10T00:34:48.012Z,32.13
2017-11-10T00:37:16.193Z,32.33
2017-11-10T00:39:44.332Z,34.53
2017-11-10T00:42:12.461Z,34.58
2017-11-10T00:44:40.762Z,31.60
2017-11-10T00:47:08.898Z,34.33
2017-11-10T00:49:37.854Z,34.65
2017-11-10T00:52:06.001Z,33.63
2017-11-10T00:54:34.129Z,35.10
2017-11-10T00:57:03.061Z,29.58
2017-11-10T00:59:31.211Z,27.10
2017-11-10T01:02:00.241Z,25.77
2017-11-10T01:04:28.370Z,26.60
2017-11-10T01:06:57.298Z,26.70
2017-11-10T01:09:25.464Z,29.55
2017-11-10T01:11:53.593Z,26.83
2017-11-10T01:14:21.730Z,25.98
2017-11-10T01:16:50.021Z,25.88
2017-11-10T01:19:18.178Z,27.62
2017-11-10T01:21:46.329Z,27.08
2017-11-10T01:24:14.498Z,24.92
2017-11-10T01:26:42.630Z,20.42
2017-11-10T01:29:10.761Z,25.98
2017-11-10T01:31:38.933Z,23.55
2017-11-10T01:34:07.065Z,24.70
2017-11-10T01:36:36.127Z,26.00
2017-11-10T01:39:04.267Z,23.15
2017-11-10T01:41:32.445Z,23.05
2017-11-10T01:44:00.567Z,25.92
2017-11-10T01:46:28.697Z,27.42
2017-11-10T01:48:56.863Z,26.85
2017-11-10T01:51:25.003Z,22.10
2017-11-10T01:53:54.041Z,23.40
2017-11-10T01:56:22.179Z,24.87
2017-11-10T01:58:50.338Z,25.10
2017-11-10T02:01:19.241Z,23.92
2017-11-10T02:03:47.382Z,24.65
2017-11-10T02:06:15.567Z,29.65
2017-11-10T02:08:43.742Z,27.23
2017-11-10T02:11:12.013Z,24.42
2017-11-10T02:13:40.137Z,27.70
2017-11-10T02:16:08.293Z,29.40
2017-11-10T02:18:36.454Z,26.30
2017-11-10T02:21:04.587Z,31.50
2017-11-10T02:23:32.845Z,29.95
2017-11-10T02:26:00.973Z,27.83
2017-11-10T02:28:29.941Z,27.73
2017-11-10T02:30:58.074Z,24.35
2017-11-10T02:33:26.219Z,23.73
2017-11-10T02:35:55.137Z,27.87
2017-11-10T02:38:23.275Z,26.33
2017-11-10T02:40:52.202Z,27.67
2017-11-10T02:43:20.342Z,28.45
2017-11-10T02:45:49.385Z,28.62
2017-11-10T02:48:17.541Z,27.52
2017-11-10T02:50:45.653Z,30.37
2017-11-10T02:53:13.827Z,28.20
2017-11-10T02:55:41.962Z,29.75
2017-11-10T02:58:10.894Z,28.75
2017-11-10T03:00:39.051Z,28.80
2017-11-10T03:03:07.332Z,28.75
2017-11-10T03:05:35.464Z,31.95
2017-11-10T03:08:03.614Z,33.15
2017-11-10T03:10:32.542Z,32.25
2017-11-10T03:13:00.706Z,34.50
2017-11-10T03:15:28.844Z,32.22
2017-11-10T03:17:57.792Z,35.25
2017-11-10T03:20:25.917Z,31.87
2017-11-10T03:22:54.187Z,31.12
2017-11-10T03:25:23.085Z,26.65
2017-11-10T03:27:51.255Z,30.00
2017-11-10T03:30:20.150Z,31.42
2017-11-10T03:32:48.320Z,30.90
2017-11-10T03:35:17.218Z,34.65
2017-11-10T03:37:45.358Z,29.70
2017-11-10T03:40:13.625Z,28.83
2017-11-10T03:42:41.757Z,26.55
2017-11-10T03:45:09.913Z,32.30
2017-11-10T03:47:38.070Z,32.45
2017-11-10T03:50:06.249Z,30.50
2017-11-10T03:52:34.378Z,33.40
2017-11-10T03:55:02.523Z,35.90
2017-11-10T03:57:30.785Z,30.62
2017-11-10T03:59:58.981Z,25.60
2017-11-10T04:02:27.113Z,28.60
2017-11-10T04:04:56.055Z,27.87
2017-11-10T04:07:24.196Z,29.70
2017-11-10T04:09:52.720Z,27.00
2017-11-10T04:12:20.855Z,27.70
2017-11-10T04:14:48.989Z,26.30
2017-11-10T04:17:17.286Z,28.48
2017-11-10T04:19:46.191Z,25.62
2017-11-10T04:22:14.322Z,25.83
2017-11-10T04:24:42.494Z,26.00
2017-11-10T04:27:10.641Z,24.80
2017-11-10T04:29:38.813Z,24.08
2017-11-10T04:32:06.953Z,29.63
2017-11-10T04:34:35.086Z,26.67
2017-11-10T04:37:03.361Z,24.95
2017-11-10T04:39:31.500Z,22.85
2017-11-10T04:42:00.048Z,21.95
2017-11-10T04:44:28.946Z,20.95
2017-11-10T04:46:57.091Z,23.17
2017-11-10T04:49:25.248Z,21.87
2017-11-10T04:51:53.395Z,21.10
2017-11-10T04:54:21.658Z,18.73
2017-11-10T04:56:49.789Z,19.90
2017-11-10T04:59:17.965Z,23.42
2017-11-10T05:01:46.101Z,19.67
2017-11-10T05:04:14.246Z,21.70
2017-11-10T05:06:43.173Z,23.35
2017-11-10T05:09:11.343Z,18.98
2017-11-10T05:11:39.614Z,24.65
2017-11-10T05:14:07.759Z,20.85
2017-11-10T05:16:35.932Z,22.65
2017-11-10T05:19:04.069Z,21.15
2017-11-10T05:21:32.202Z,21.40
2017-11-10T05:24:00.357Z,21.25
2017-11-10T05:26:28.502Z,18.75
2017-11-10T05:28:57.462Z,19.65
2017-11-10T05:31:25.603Z,18.02
2017-11-10T05:33:53.798Z,20.10
2017-11-10T05:36:21.932Z,18.58
2017-11-10T05:38:50.067Z,18.73
2017-11-10T05:41:18.231Z,17.37
2017-11-10T05:43:46.371Z,19.85
2017-11-10T05:46:14.570Z,17.40
2017-11-10T05:48:42.707Z,17.60
2017-11-10T05:51:12.821Z,17.40
2017-11-10T05:53:46.381Z,18.87
2017-11-10T05:56:17.166Z,17.23
2017-11-10T05:58:45.331Z,17.27
2017-11-10T06:01:13.473Z,13.70
2017-11-10T06:03:41.759Z,15.73
2017-11-10T06:06:09.901Z,17.87
2017-11-10T06:08:38.102Z,17.30
2017-11-10T06:11:07.025Z,16.67
2017-11-10T06:13:35.170Z,16.37
2017-11-10T06:16:04.105Z,17.02
2017-11-10T06:18:32.237Z,17.55
2017-11-10T06:21:01.299Z,14.23
2017-11-10T06:23:29.468Z,17.25
2017-11-10T06:25:57.605Z,16.48
2017-11-10T06:28:25.751Z,18.48
2017-11-10T06:30:54.689Z,16.05
2017-11-10T06:33:22.862Z,15.30
2017-11-10T06:35:50.986Z,15.55
2017-11-10T06:38:20.039Z,15.18
2017-11-10T06:40:48.174Z,14.35
2017-11-10T06:43:16.337Z,15.93
2017-11-10T06:45:44.502Z,19.25
2017-11-10T06:48:12.639Z,16.25
2017-11-10T06:50:40.798Z,14.90
2017-11-10T06:53:08.936Z,17.55
2017-11-10T06:55:37.219Z,19.17
2017-11-10T06:58:05.361Z,15.90
2017-11-10T07:00:33.520Z,17.73
2017-11-10T07:03:01.667Z,15.55
2017-11-10T07:05:29.838Z,16.58
2017-11-10T07:07:58.029Z,17.20
2017-11-10T07:10:26.158Z,17.50
2017-11-10T07:12:54.467Z,17.45
2017-11-10T07:15:22.607Z,15.60
2017-11-10T07:17:50.746Z,18.67
2017-11-10T07:20:18.913Z,20.17
2017-11-10T07:22:47.058Z,17.35
2017-11-10T07:25:15.213Z,17.77
2017-11-10T07:27:43.350Z,16.12
2017-11-10T07:30:12.314Z,18.40
2017-11-10T07:32:40.457Z,17.33
2017-11-10T07:35:08.599Z,16.52
2017-11-10T07:37:37.554Z,18.75
2017-11-10T07:40:05.688Z,20.60
2017-11-10T07:42:33.859Z,18.00
2017-11-10T07:45:02.006Z,14.20
2017-11-10T07:47:30.914Z,16.42
2017-11-10T07:49:59.210Z,13.27
2017-11-10T07:52:27.344Z,17.27
2017-11-10T07:54:55.490Z,14.60
2017-11-10T07:57:23.654Z,15.13
2017-11-10T07:59:51.792Z,17.45
2017-11-10T08:02:19.945Z,19.45
2017-11-10T08:04:48.098Z,14.77
2017-11-10T08:07:17.181Z,15.88
2017-11-10T08:09:45.318Z,16.58
2017-11-10T08:12:13.482Z,16.90
2017-11-10T08:14:41.614Z,14.63
2017-11-10T08:17:10.541Z,14.75
2017-11-10T08:19:39.097Z,13.57
2017-11-10T08:22:08.018Z,13.73
2017-11-10T08:24:36.146Z,13.35
2017-11-10T08:27:04.417Z,14.93
2017-11-10T08:29:32.563Z,15.75
2017-11-10T08:32:00.734Z,12.35
2017-11-10T08:34:28.903Z,13.07
2017-11-10T08:36:57.026Z,15.68
2017-11-10T08:39:25.972Z,14.87
2017-11-10T08:41:54.121Z,15.00
2017-11-10T08:44:22.392Z,14.45
2017-11-10T08:46:50.564Z,14.57
2017-11-10T08:49:19.486Z,15.32
2017-11-10T08:51:47.658Z,12.63
2017-11-10T08:54:15.798Z,15.10
2017-11-10T08:56:43.977Z,16.17
2017-11-10T08:59:12.120Z,14.38
2017-11-10T09:01:40.250Z,17.20
2017-11-10T09:04:08.530Z,16.33
2017-11-10T09:06:36.657Z,16.30
2017-11-10T09:09:04.829Z,14.48
2017-11-10T09:11:32.970Z,19.35
2017-11-10T09:14:01.188Z,17.05
2017-11-10T09:16:29.317Z,20.60
2017-11-10T09:18:57.454Z,18.67
2017-11-10T09:21:25.613Z,21.00
2017-11-10T09:23:53.755Z,14.75
2017-11-10T09:26:22.691Z,13.60
2017-11-10T09:28:50.827Z,14.05
2017-11-10T09:31:19.726Z,18.05
2017-11-10T09:33:48.018Z,15.23
2017-11-10T09:36:16.179Z,14.35
2017-11-10T09:38:44.364Z,13.10
2017-11-10T09:41:12.498Z,16.70
2017-11-10T09:43:40.658Z,14.40
2017-11-10T09:46:08.802Z,18.48
2017-11-10T09:48:36.955Z,14.30
2017-11-10T09:51:05.086Z,17.12
2017-11-10T09:53:33.381Z,14.10
2017-11-10T09:56:01.527Z,15.63
2017-11-10T09:58:29.687Z,11.93
2017-11-10T10:00:59.000Z,10.00
2017-11-10T10:03:27.258Z,11.18
2017-11-10T10:05:55.390Z,11.35
2017-11-10T10:08:23.525Z,11.35
2017-11-10T10:10:51.714Z,10.25
2017-11-10T10:13:19.865Z,10.75
2017-11-10T10:15:48.025Z,12.10
2017-11-10T10:18:16.183Z,10.07
2017-11-10T10:20:44.303Z,9.85
2017-11-10T10:23:12.582Z,11.43
2017-11-10T10:25:40.721Z,9.57
2017-11-10T10:28:08.907Z,16.40
2017-11-10T10:30:37.026Z,11.95
2017-11-10T10:33:05.202Z,10.73
2017-11-10T10:35:33.341Z,20.00
2017-11-10T10:38:01.505Z,18.77
2017-11-10T10:40:29.759Z,15.60
2017-11-10T10:42:57.880Z,10.05
2017-11-10T10:45:26.845Z,11.00
2017-11-10T10:47:54.992Z,10.15
2017-11-10T10:50:23.108Z,9.35
2017-11-10T10:52:51.262Z,10.90
2017-11-10T10:55:19.393Z,9.65
2017-11-10T10:57:47.670Z,9.55
2017-11-10T11:00:15.804Z,14.55
2017-11-10T11:02:43.958Z,11.00
2017-11-10T11:05:12.116Z,10.57
2017-11-10T11:07:40.302Z,9.32
2017-11-10T11:10:08.439Z,10.40
2017-11-10T11:12:36.576Z,9.52
2017-11-10T11:15:05.537Z,12.80
2017-11-10T11:17:33.679Z,11.05
2017-11-10T11:20:01.843Z,13.38
2017-11-10T11:22:29.971Z,11.35
2017-11-10T11:24:58.114Z,13.45
2017-11-10T11:27:26.317Z,13.13
2017-11-10T11:29:54.503Z,10.40
2017-11-10T11:32:22.708Z,10.20
2017-11-10T11:34:50.845Z,10.77
2017-11-10T11:37:18.982Z,11.85
2017-11-10T11:39:47.155Z,11.93
2017-11-10T11:42:15.285Z,11.38
2017-11-10T11:44:44.182Z,11.15
2017-11-10T11:47:12.468Z,13.73
2017-11-10T11:49:40.633Z,12.00
2017-11-10T11:52:08.773Z,11.02
2017-11-10T11:54:36.951Z,12.15
2017-11-10T11:57:05.085Z,13.15
2017-11-10T11:59:33.223Z,13.23
2017-11-10T12:02:01.384Z,10.95
2017-11-10T12:04:30.285Z,11.45
2017-11-10T12:06:59.208Z,12.90
2017-11-10T12:09:27.351Z,11.32
2017-11-10T12:11:55.522Z,12.43
2017-11-10T12:14:23.660Z,10.50
2017-11-10T12:16:51.833Z,9.05
2017-11-10T12:19:19.986Z,15.73
2017-11-10T12:21:48.271Z,9.38
2017-11-10T12:24:16.418Z,11.73
2017-11-10T12:26:44.534Z,9.60
2017-11-10T12:29:12.685Z,9.43
2017-11-10T12:31:40.854Z,15.23
2017-11-10T12:34:08.992Z,12.18
2017-11-10T12:36:37.177Z,8.57
2017-11-10T12:39:05.306Z,13.32
2017-11-10T12:41:33.431Z,9.80
2017-11-10T12:44:01.995Z,11.18
2017-11-10T12:46:30.157Z,9.02
2017-11-10T12:48:59.066Z,11.35
2017-11-10T12:51:27.228Z,10.38
2017-11-10T12:53:56.133Z,10.30
2017-11-10T12:56:24.334Z,10.63
2017-11-10T12:58:52.455Z,9.73
2017-11-10T13:01:21.371Z,11.18
2017-11-10T13:03:49.551Z,10.85
2017-11-10T13:06:17.713Z,10.25
2017-11-10T13:08:45.889Z,10.50
2017-11-10T13:11:14.021Z,9.48
2017-11-10T13:13:42.201Z,9.75
2017-11-10T13:16:10.338Z,10.43
2017-11-10T13:18:38.497Z,11.63
2017-11-10T13:21:06.627Z,9.65
2017-11-10T13:23:34.802Z,9.73
2017-11-10T13:26:02.937Z,10.63
2017-11-10T13:28:31.069Z,9.40
2017-11-10T13:31:00.100Z,8.75
2017-11-10T13:33:28.217Z,8.55
2017-11-10T13:35:56.387Z,9.63
2017-11-10T13:38:24.524Z,11.57
2017-11-10T13:40:52.674Z,9.05
2017-11-10T13:43:20.834Z,9.95
2017-11-10T13:45:48.962Z,9.55
2017-11-10T13:48:17.112Z,9.25
2017-11-10T13:50:45.270Z,13.93
2017-11-10T13:53:13.447Z,7.72
2017-11-10T13:55:41.615Z,10.25
2017-11-10T13:58:09.744Z,10.32
2017-11-10T14:00:38.656Z,9.70
2017-11-10T14:03:09.196Z,9.80
2017-11-10T14:05:37.326Z,9.55
2017-11-10T14:08:05.469Z,8.68
2017-11-10T14:10:33.661Z,7.15
2017-11-10T14:13:01.817Z,6.45
2017-11-10T14:15:29.959Z,6.53
2017-11-10T14:17:58.088Z,6.18
2017-11-10T14:20:26.250Z,6.70
2017-11-10T14:22:54.380Z,6.10
2017-11-10T14:25:22.506Z,5.50
2017-11-10T14:27:50.802Z,5.50
2017-11-10T14:30:19.727Z,5.65
2017-11-10T14:32:47.853Z,5.60
2017-11-10T14:35:16.033Z,5.80
2017-11-10T14:37:44.141Z,5.55
2017-11-10T14:40:12.442Z,5.15
2017-11-10T14:42:41.333Z,7.82
2017-11-10T14:45:09.882Z,5.37
2017-11-10T14:47:38.006Z,4.37
2017-11-10T14:50:06.150Z,4.80
2017-11-10T14:52:34.303Z,4.43
2017-11-10T14:55:02.459Z,4.60
2017-11-10T14:57:32.297Z,4.87
2017-11-10T15:00:00.431Z,4.78
2017-11-10T15:02:28.697Z,5.35
2017-11-10T15:04:56.822Z,5.00
2017-11-10T15:07:24.972Z,5.53
2017-11-10T15:09:53.882Z,4.97
2017-11-10T15:12:22.019Z,4.97
2017-11-10T15:14:50.189Z,4.55
2017-11-10T15:17:18.326Z,5.22
2017-11-10T15:19:46.593Z,5.18
2017-11-10T15:22:14.731Z,5.43
2017-11-10T15:24:43.680Z,6.10
2017-11-10T15:27:11.806Z,6.53
2017-11-10T15:29:39.946Z,6.03
2017-11-10T15:32:08.210Z,4.93
2017-11-10T15:34:36.347Z,4.93
2017-11-10T15:37:04.509Z,5.37
2017-11-10T15:39:32.654Z,4.70
2017-11-10T15:42:01.582Z,5.75
2017-11-10T15:44:29.730Z,5.50
2017-11-10T15:46:57.878Z,4.57
2017-11-10T15:49:26.010Z,6.10
2017-11-10T15:51:54.189Z,5.57
2017-11-10T15:54:22.331Z,5.55
2017-11-10T15:56:50.470Z,5.05
2017-11-10T15:59:18.638Z,4.90
2017-11-10T16:01:46.765Z,4.75
2017-11-10T16:04:15.034Z,4.60
2017-11-10T16:06:43.181Z,4.12
2017-11-10T16:09:11.342Z,5.28
2017-11-10T16:11:39.498Z,4.43
2017-11-10T16:14:07.630Z,6.53
2017-11-10T16:16:35.818Z,5.00
2017-11-10T16:19:03.961Z,4.35
2017-11-10T16:21:32.099Z,5.05
2017-11-10T16:24:00.370Z,5.85
2017-11-10T16:26:28.522Z,4.90
2017-11-10T16:28:56.678Z,4.32
2017-11-10T16:31:24.804Z,4.20
2017-11-10T16:33:52.967Z,5.78
2017-11-10T16:36:21.117Z,4.87
2017-11-10T16:38:49.422Z,5.45
2017-11-10T16:41:17.550Z,3.90
2017-11-10T16:43:45.705Z,4.40
2017-11-10T16:46:13.880Z,3.25
2017-11-10T16:48:42.009Z,4.10
2017-11-10T16:51:10.191Z,4.05
2017-11-10T16:53:38.321Z,5.32
2017-11-10T16:56:06.466Z,4.15
2017-11-10T16:58:34.759Z,5.87
2017-11-10T17:01:02.887Z,5.37
2017-11-10T17:03:31.990Z,6.68
2017-11-10T17:06:00.128Z,5.93
2017-11-10T17:08:28.286Z,4.93
2017-11-10T17:10:56.445Z,4.62
2017-11-10T17:13:24.647Z,3.97
2017-11-10T17:15:52.793Z,4.18
2017-11-10T17:18:20.935Z,3.40
2017-11-10T17:20:49.108Z,5.68
2017-11-10T17:23:17.239Z,6.07
2017-11-10T17:25:45.370Z,10.50
2017-11-10T17:28:13.525Z,6.85
2017-11-10T17:30:42.484Z,5.78
2017-11-10T17:33:10.615Z,7.35
2017-11-10T17:35:38.809Z,11.02
2017-11-10T17:38:06.955Z,4.68
2017-11-10T17:40:53.612Z,6.45
2017-11-10T17:43:21.749Z,5.75
2017-11-10T17:45:50.057Z,2.90
2017-11-10T17:48:18.188Z,2.95
2017-11-10T17:50:46.384Z,2.92
2017-11-10T17:53:14.529Z,3.08
2017-11-10T17:55:42.654Z,2.67
2017-11-10T17:58:10.838Z,2.83
2017-11-10T18:00:38.986Z,2.30
2017-11-10T18:03:07.154Z,2.40
2017-11-10T18:05:35.331Z,2.80
2017-11-10T18:08:03.514Z,3.10
2017-11-10T18:10:31.671Z,2.60
2017-11-10T18:13:00.627Z,2.92
2017-11-10T18:15:28.748Z,2.10
2017-11-10T18:17:56.910Z,2.35
2017-11-10T18:20:25.046Z,2.15
2017-11-10T18:22:54.149Z,2.55
2017-11-10T18:25:22.286Z,2.30
2017-11-10T18:27:50.414Z,2.10
2017-11-10T18:30:18.562Z,2.70
2017-11-10T18:32:47.466Z,2.28
2017-11-10T18:35:15.655Z,3.25
2017-11-10T18:37:43.790Z,2.65
2017-11-10T18:40:12.720Z,2.85
2017-11-10T18:42:40.844Z,2.37
2017-11-10T18:45:09.153Z,2.47
2017-11-10T18:47:37.321Z,2.20
2017-11-10T18:50:06.220Z,2.60
2017-11-10T18:52:34.379Z,5.47
2017-11-10T18:55:03.276Z,2.90
2017-11-10T18:57:32.198Z,1.85
2017-11-10T19:00:00.348Z,2.97
2017-11-10T19:02:28.493Z,2.25
2017-11-10T19:04:56.778Z,1.90
2017-11-10T19:07:25.673Z,1.45
2017-11-10T19:09:54.617Z,1.62
2017-11-10T19:12:22.764Z,1.67
2017-11-10T19:14:50.951Z,1.55
2017-11-10T19:17:19.130Z,1.60
2017-11-10T19:19:47.274Z,1.60
2017-11-10T19:22:15.477Z,1.80
2017-11-10T19:24:43.612Z,1.90
2017-11-10T19:27:11.751Z,1.75
2017-11-10T19:29:39.884Z,1.90
2017-11-10T19:32:09.075Z,1.73
2017-11-10T19:34:38.060Z,1.50
2017-11-10T19:37:06.208Z,1.70
2017-11-10T19:39:34.433Z,1.60
2017-11-10T19:42:02.582Z,1.80
2017-11-10T19:44:30.706Z,2.00
2017-11-10T19:46:58.885Z,2.40
2017-11-10T19:49:27.037Z,2.05
2017-11-10T19:51:55.322Z,2.40
2017-11-10T19:54:23.462Z,1.90
2017-11-10T19:56:51.654Z,2.50
2017-11-10T19:59:19.821Z,2.37
2017-11-10T20:01:48.011Z,1.90
2017-11-10T20:04:16.168Z,1.70
2017-11-10T20:06:44.364Z,2.10
2017-11-10T20:09:13.495Z,2.03
2017-11-10T20:11:41.660Z,2.20
2017-11-10T20:14:09.794Z,1.90
2017-11-10T20:16:37.983Z,1.90
2017-11-10T20:19:06.130Z,3.87
2017-11-10T20:21:34.264Z,2.05
2017-11-10T20:24:03.241Z,2.15
2017-11-10T20:26:31.384Z,2.35
2017-11-10T20:28:59.537Z,4.50
2017-11-10T20:31:27.746Z,2.47
2017-11-10T20:33:56.701Z,2.75
2017-11-10T20:36:24.838Z,2.42
2017-11-10T20:38:53.794Z,2.42
2017-11-10T20:41:22.504Z,2.70
2017-11-10T20:43:51.527Z,2.95
2017-11-10T20:46:20.417Z,3.42
2017-11-10T20:48:48.578Z,3.67
2017-11-10T20:51:17.504Z,3.95
2017-11-10T20:53:47.542Z,3.05
2017-11-10T20:56:15.720Z,2.72
2017-11-10T20:58:46.801Z,2.40
2017-11-10T21:01:16.646Z,2.97
2017-11-10T21:03:44.766Z,3.15
2017-11-10T21:06:13.786Z,3.72
2017-11-10T21:08:42.712Z,3.40
2017-11-10T21:11:11.541Z,4.62
2017-11-10T21:13:39.733Z,4.07
2017-11-10T21:16:10.231Z,3.65
2017-11-10T21:18:38.606Z,3.40
2017-11-10T21:21:07.390Z,2.80
2017-11-10T21:23:36.208Z,3.45
2017-11-10T21:26:07.289Z,3.22
2017-11-10T21:28:36.089Z,3.00
2017-11-10T21:31:04.892Z,3.40
2017-11-10T21:33:33.040Z,3.55
2017-11-10T21:36:01.628Z,3.47
2017-11-10T21:38:29.761Z,3.10
2017-11-10T21:40:58.676Z,3.60
2017-11-10T21:43:26.968Z,3.12
2017-11-10T21:45:56.274Z,4.15
2017-11-10T21:48:26.130Z,3.00
2017-11-10T21:50:55.259Z,3.20
2017-11-10T21:53:23.383Z,2.87
2017-11-10T21:55:54.044Z,7.57
2017-11-10T21:58:23.746Z,3.08
2017-11-10T22:00:51.936Z,3.08
2017-11-10T22:03:21.679Z,2.85
2017-11-10T22:05:49.838Z,3.50
2017-11-10T22:08:19.273Z,2.78
2017-11-10T22:10:47.400Z,3.03
2017-11-10T22:13:16.083Z,6.55
2017-11-10T22:15:45.541Z,3.37
2017-11-10T22:18:13.706Z,4.85
2017-11-10T22:20:42.484Z,4.35
2017-11-10T22:23:10.661Z,9.70
2017-11-10T22:25:40.908Z,4.05
2017-11-10T22:28:09.077Z,4.28
2017-11-10T22:30:37.252Z,6.90
2017-11-10T22:33:05.569Z,4.62
2017-11-10T22:35:34.468Z,4.20
2017-11-10T22:38:02.619Z,4.05
2017-11-10T22:40:31.560Z,4.57
2017-11-10T22:42:59.729Z,4.65
2017-11-10T22:45:27.898Z,5.40
2017-11-10T22:47:56.044Z,5.18
2017-11-10T22:50:25.098Z,7.45
2017-11-10T22:52:53.229Z,5.20
2017-11-10T22:55:22.160Z,7.82
2017-11-10T22:57:50.318Z,5.62
2017-11-10T23:00:18.567Z,5.70
2017-11-10T23:02:46.698Z,6.20
2017-11-10T23:05:14.867Z,7.00
2017-11-10T23:07:43.192Z,8.32
2017-11-10T23:10:11.326Z,6.32
2017-11-10T23:12:39.485Z,7.68
2017-11-10T23:15:07.635Z,6.47
2017-11-10T23:17:36.560Z,6.70
2017-11-10T23:20:04.762Z,7.87
2017-11-10T23:22:33.659Z,7.47
2017-11-10T23:25:01.984Z,6.95
2017-11-10T23:27:30.134Z,6.60
2017-11-10T23:29:58.295Z,8.75
2017-11-10T23:32:26.422Z,7.47
2017-11-10T23:34:54.571Z,13.15
2017-11-10T23:37:22.710Z,10.10
2017-11-10T23:39:50.845Z,7.70
2017-11-10T23:42:19.140Z,8.23
2017-11-10T23:44:48.083Z,7.90
2017-11-10T23:47:16.208Z,8.95
2017-11-10T23:49:44.342Z,10.68
2017-11-10T23:52:12.538Z,9.63
2017-11-10T23:54:40.666Z,7.28
2017-11-10T23:57:08.796Z,10.40
2017-11-10T23:59:37.840Z,7.97
